sensor_id;sensor_type;location;lat;lon;timestamp;P1;durP1;ratioP1;P2;durP2;ratioP2
3853;SDS011;1942;48.770;8.934;2022-07-15T00:02:08;4.10;;;2.37;;
3853;SDS011;1942;48.770;8.934;2022-07-15T00:04:38;3.27;;;2.03;;
3853;SDS011;1942;48.770;8.934;2022-07-15T00:07:07;4.03;;;2.50;;
3853;SDS011;1942;48.770;8.934;2022-07-15T00:09:34;4.40;;;3.83;;
3853;SDS011;1942;48.770;8.934;2022-07-15T00:12:19;3.17;;;2.50;;
3853;SDS011;1942;48.770;8.934;2022-07-15T00:14:46;3.97;;;2.10;;
3853;SDS011;1942;48.770;8.934;2022-07-15T00:17:13;4.50;;;2.60;;
3853;SDS011;1942;48.770;8.934;2022-07-15T00:19:41;3.43;;;2.27;;
3853;SDS011;1942;48.770;8.934;2022-07-15T00:22:08;2.70;;;2.43;;
3853;SDS011;1942;48.770;8.934;2022-07-15T00:24:35;2.97;;;2.50;;
3853;SDS011;1942;48.770;8.934;2022-07-15T00:27:02;5.33;;;2.33;;
3853;SDS011;1942;48.770;8.934;2022-07-15T00:29:29;3.70;;;2.20;;
3853;SDS011;1942;48.770;8.934;2022-07-15T00:31:59;5.40;;;2.07;;
3853;SDS011;1942;48.770;8.934;2022-07-15T00:34:29;3.93;;;2.23;;
3853;SDS011;1942;48.770;8.934;2022-07-15T00:36:57;3.33;;;2.10;;
3853;SDS011;1942;48.770;8.934;2022-07-15T00:39:24;4.30;;;2.20;;
3853;SDS011;1942;48.770;8.934;2022-07-15T00:41:51;3.33;;;2.27;;
3853;SDS011;1942;48.770;8.934;2022-07-15T00:44:18;3.13;;;2.00;;
3853;SDS011;1942;48.770;8.934;2022-07-15T00:46:44;3.30;;;2.20;;
3853;SDS011;1942;48.770;8.934;2022-07-15T00:49:11;3.57;;;2.40;;
3853;SDS011;1942;48.770;8.934;2022-07-15T00:51:40;4.73;;;4.20;;
3853;SDS011;1942;48.770;8.934;2022-07-15T00:54:09;3.83;;;2.50;;
3853;SDS011;1942;48.770;8.934;2022-07-15T00:56:38;3.97;;;2.23;;
3853;SDS011;1942;48.770;8.934;2022-07-15T00:59:07;2.77;;;2.40;;
3853;SDS011;1942;48.770;8.934;2022-07-15T01:01:36;3.50;;;2.00;;
3853;SDS011;1942;48.770;8.934;2022-07-15T01:04:04;3.97;;;2.10;;
3853;SDS011;1942;48.770;8.934;2022-07-15T01:06:32;2.87;;;2.20;;
3853;SDS011;1942;48.770;8.934;2022-07-15T01:08:59;3.47;;;2.20;;
3853;SDS011;1942;48.770;8.934;2022-07-15T01:11:27;2.87;;;2.20;;
3853;SDS011;1942;48.770;8.934;2022-07-15T01:13:55;3.20;;;2.17;;
3853;SDS011;1942;48.770;8.934;2022-07-15T01:16:22;3.67;;;2.43;;
3853;SDS011;1942;48.770;8.934;2022-07-15T01:18:49;4.07;;;2.53;;
3853;SDS011;1942;48.770;8.934;2022-07-15T01:21:17;3.67;;;2.60;;
3853;SDS011;1942;48.770;8.934;2022-07-15T01:23:44;3.90;;;2.50;;
3853;SDS011;1942;48.770;8.934;2022-07-15T01:26:11;2.70;;;2.27;;
3853;SDS011;1942;48.770;8.934;2022-07-15T01:28:39;5.07;;;2.40;;
3853;SDS011;1942;48.770;8.934;2022-07-15T01:31:06;3.10;;;2.47;;
3853;SDS011;1942;48.770;8.934;2022-07-15T01:33:33;4.10;;;2.73;;
3853;SDS011;1942;48.770;8.934;2022-07-15T01:36:01;3.17;;;2.47;;
3853;SDS011;1942;48.770;8.934;2022-07-15T01:38:30;4.33;;;2.63;;
3853;SDS011;1942;48.770;8.934;2022-07-15T01:40:57;3.47;;;2.50;;
3853;SDS011;1942;48.770;8.934;2022-07-15T01:43:23;4.00;;;2.30;;
3853;SDS011;1942;48.770;8.934;2022-07-15T01:45:50;4.70;;;2.60;;
3853;SDS011;1942;48.770;8.934;2022-07-15T01:48:17;3.50;;;2.50;;
3853;SDS011;1942;48.770;8.934;2022-07-15T01:51:02;2.97;;;2.50;;
3853;SDS011;1942;48.770;8.934;2022-07-15T01:53:30;3.83;;;2.63;;
3853;SDS011;1942;48.770;8.934;2022-07-15T01:55:57;4.43;;;2.80;;
3853;SDS011;1942;48.770;8.934;2022-07-15T01:58:23;3.90;;;2.60;;
3853;SDS011;1942;48.770;8.934;2022-07-15T02:00:50;2.80;;;2.40;;
3853;SDS011;1942;48.770;8.934;2022-07-15T02:03:17;3.33;;;2.43;;
3853;SDS011;1942;48.770;8.934;2022-07-15T02:05:44;3.70;;;2.40;;
3853;SDS011;1942;48.770;8.934;2022-07-15T02:08:10;3.77;;;2.80;;
3853;SDS011;1942;48.770;8.934;2022-07-15T02:10:39;3.90;;;2.53;;
3853;SDS011;1942;48.770;8.934;2022-07-15T02:13:06;5.33;;;2.53;;
3853;SDS011;1942;48.770;8.934;2022-07-15T02:15:33;4.67;;;2.80;;
3853;SDS011;1942;48.770;8.934;2022-07-15T02:18:00;2.87;;;2.30;;
3853;SDS011;1942;48.770;8.934;2022-07-15T02:20:26;5.10;;;2.90;;
3853;SDS011;1942;48.770;8.934;2022-07-15T02:22:54;3.53;;;2.43;;
3853;SDS011;1942;48.770;8.934;2022-07-15T02:25:22;3.33;;;2.60;;
3853;SDS011;1942;48.770;8.934;2022-07-15T02:27:52;3.27;;;2.63;;
3853;SDS011;1942;48.770;8.934;2022-07-15T02:30:21;3.00;;;2.10;;
3853;SDS011;1942;48.770;8.934;2022-07-15T02:32:49;3.83;;;2.50;;
3853;SDS011;1942;48.770;8.934;2022-07-15T02:35:15;3.20;;;2.63;;
3853;SDS011;1942;48.770;8.934;2022-07-15T02:37:42;4.77;;;2.47;;
3853;SDS011;1942;48.770;8.934;2022-07-15T02:40:10;5.50;;;2.90;;
3853;SDS011;1942;48.770;8.934;2022-07-15T02:42:38;3.50;;;2.50;;
3853;SDS011;1942;48.770;8.934;2022-07-15T02:45:06;4.13;;;2.73;;
3853;SDS011;1942;48.770;8.934;2022-07-15T02:47:33;5.30;;;2.83;;
3853;SDS011;1942;48.770;8.934;2022-07-15T02:50:01;10.50;;;3.17;;
3853;SDS011;1942;48.770;8.934;2022-07-15T02:52:27;4.13;;;3.20;;
3853;SDS011;1942;48.770;8.934;2022-07-15T02:54:54;3.90;;;2.90;;
3853;SDS011;1942;48.770;8.934;2022-07-15T02:57:21;3.73;;;2.50;;
3853;SDS011;1942;48.770;8.934;2022-07-15T02:59:48;3.03;;;2.63;;
3853;SDS011;1942;48.770;8.934;2022-07-15T03:02:16;3.50;;;2.30;;
3853;SDS011;1942;48.770;8.934;2022-07-15T03:04:43;3.77;;;2.50;;
3853;SDS011;1942;48.770;8.934;2022-07-15T03:07:10;3.33;;;2.70;;
3853;SDS011;1942;48.770;8.934;2022-07-15T03:09:37;3.67;;;2.30;;
3853;SDS011;1942;48.770;8.934;2022-07-15T03:12:04;2.97;;;2.67;;
3853;SDS011;1942;48.770;8.934;2022-07-15T03:14:31;2.80;;;2.47;;
3853;SDS011;1942;48.770;8.934;2022-07-15T03:16:59;4.03;;;2.70;;
3853;SDS011;1942;48.770;8.934;2022-07-15T03:19:27;4.40;;;2.80;;
3853;SDS011;1942;48.770;8.934;2022-07-15T03:21:54;4.07;;;3.00;;
3853;SDS011;1942;48.770;8.934;2022-07-15T03:24:21;6.43;;;3.23;;
3853;SDS011;1942;48.770;8.934;2022-07-15T03:26:48;3.20;;;2.87;;
3853;SDS011;1942;48.770;8.934;2022-07-15T03:29:14;4.50;;;3.07;;
3853;SDS011;1942;48.770;8.934;2022-07-15T03:31:41;6.93;;;3.10;;
3853;SDS011;1942;48.770;8.934;2022-07-15T03:34:08;4.03;;;3.07;;
3853;SDS011;1942;48.770;8.934;2022-07-15T03:36:37;3.20;;;2.90;;
3853;SDS011;1942;48.770;8.934;2022-07-15T03:39:04;3.20;;;2.90;;
3853;SDS011;1942;48.770;8.934;2022-07-15T03:41:31;3.60;;;2.90;;
3853;SDS011;1942;48.770;8.934;2022-07-15T03:43:58;5.57;;;3.00;;
3853;SDS011;1942;48.770;8.934;2022-07-15T03:46:25;3.53;;;2.70;;
3853;SDS011;1942;48.770;8.934;2022-07-15T03:48:52;5.30;;;3.30;;
3853;SDS011;1942;48.770;8.934;2022-07-15T03:51:19;3.37;;;3.07;;
3853;SDS011;1942;48.770;8.934;2022-07-15T03:53:47;4.80;;;3.13;;
3853;SDS011;1942;48.770;8.934;2022-07-15T03:56:14;3.77;;;3.03;;
3853;SDS011;1942;48.770;8.934;2022-07-15T03:58:41;4.67;;;2.93;;
3853;SDS011;1942;48.770;8.934;2022-07-15T04:01:09;3.83;;;3.23;;
3853;SDS011;1942;48.770;8.934;2022-07-15T04:03:36;4.03;;;3.07;;
3853;SDS011;1942;48.770;8.934;2022-07-15T04:06:03;4.10;;;3.00;;
3853;SDS011;1942;48.770;8.934;2022-07-15T04:08:30;4.67;;;3.50;;
3853;SDS011;1942;48.770;8.934;2022-07-15T04:10:58;4.33;;;3.20;;
3853;SDS011;1942;48.770;8.934;2022-07-15T04:13:25;3.67;;;3.33;;
3853;SDS011;1942;48.770;8.934;2022-07-15T04:15:52;4.03;;;3.23;;
3853;SDS011;1942;48.770;8.934;2022-07-15T04:18:19;6.00;;;4.23;;
3853;SDS011;1942;48.770;8.934;2022-07-15T04:20:46;5.87;;;3.20;;
3853;SDS011;1942;48.770;8.934;2022-07-15T04:23:13;3.33;;;3.03;;
3853;SDS011;1942;48.770;8.934;2022-07-15T04:25:43;4.57;;;3.30;;
3853;SDS011;1942;48.770;8.934;2022-07-15T04:28:12;3.37;;;3.07;;
3853;SDS011;1942;48.770;8.934;2022-07-15T04:30:38;4.07;;;3.00;;
3853;SDS011;1942;48.770;8.934;2022-07-15T04:33:05;4.23;;;3.00;;
3853;SDS011;1942;48.770;8.934;2022-07-15T04:35:32;3.30;;;3.00;;
3853;SDS011;1942;48.770;8.934;2022-07-15T04:37:59;5.10;;;3.17;;
3853;SDS011;1942;48.770;8.934;2022-07-15T04:40:25;3.90;;;3.07;;
3853;SDS011;1942;48.770;8.934;2022-07-15T04:42:52;3.40;;;3.07;;
3853;SDS011;1942;48.770;8.934;2022-07-15T04:45:20;5.10;;;3.30;;
3853;SDS011;1942;48.770;8.934;2022-07-15T04:47:47;4.30;;;3.67;;
3853;SDS011;1942;48.770;8.934;2022-07-15T04:50:14;4.17;;;2.90;;
3853;SDS011;1942;48.770;8.934;2022-07-15T04:52:58;5.17;;;3.50;;
3853;SDS011;1942;48.770;8.934;2022-07-15T04:55:25;4.03;;;3.00;;
3853;SDS011;1942;48.770;8.934;2022-07-15T04:57:52;4.30;;;2.87;;
3853;SDS011;1942;48.770;8.934;2022-07-15T05:00:20;3.30;;;2.93;;
3853;SDS011;1942;48.770;8.934;2022-07-15T05:02:47;5.27;;;3.20;;
3853;SDS011;1942;48.770;8.934;2022-07-15T05:05:14;4.57;;;3.00;;
3853;SDS011;1942;48.770;8.934;2022-07-15T05:07:43;4.90;;;3.00;;
3853;SDS011;1942;48.770;8.934;2022-07-15T05:10:12;6.03;;;4.77;;
3853;SDS011;1942;48.770;8.934;2022-07-15T05:12:52;4.47;;;3.40;;
3853;SDS011;1942;48.770;8.934;2022-07-15T05:15:25;3.70;;;3.30;;
3853;SDS011;1942;48.770;8.934;2022-07-15T05:17:52;6.17;;;3.20;;
3853;SDS011;1942;48.770;8.934;2022-07-15T05:20:19;6.50;;;3.27;;
3853;SDS011;1942;48.770;8.934;2022-07-15T05:23:02;6.07;;;3.40;;
3853;SDS011;1942;48.770;8.934;2022-07-15T05:25:31;3.90;;;2.80;;
3853;SDS011;1942;48.770;8.934;2022-07-15T05:28:02;5.30;;;2.93;;
3853;SDS011;1942;48.770;8.934;2022-07-15T05:30:30;3.27;;;2.80;;
3853;SDS011;1942;48.770;8.934;2022-07-15T05:33:03;5.37;;;2.93;;
3853;SDS011;1942;48.770;8.934;2022-07-15T05:35:34;4.30;;;3.30;;
3853;SDS011;1942;48.770;8.934;2022-07-15T05:38:10;6.00;;;2.90;;
3853;SDS011;1942;48.770;8.934;2022-07-15T05:40:41;5.07;;;3.40;;
3853;SDS011;1942;48.770;8.934;2022-07-15T05:43:10;4.57;;;3.30;;
3853;SDS011;1942;48.770;8.934;2022-07-15T05:45:38;4.03;;;3.23;;
3853;SDS011;1942;48.770;8.934;2022-07-15T05:48:09;4.30;;;2.83;;
3853;SDS011;1942;48.770;8.934;2022-07-15T05:50:37;5.13;;;3.37;;
3853;SDS011;1942;48.770;8.934;2022-07-15T05:53:07;3.30;;;3.00;;
3853;SDS011;1942;48.770;8.934;2022-07-15T05:55:34;5.70;;;3.10;;
3853;SDS011;1942;48.770;8.934;2022-07-15T05:58:06;5.83;;;3.00;;
3853;SDS011;1942;48.770;8.934;2022-07-15T06:00:45;5.03;;;2.90;;
3853;SDS011;1942;48.770;8.934;2022-07-15T06:03:12;3.57;;;2.80;;
3853;SDS011;1942;48.770;8.934;2022-07-15T06:05:46;3.63;;;2.83;;
3853;SDS011;1942;48.770;8.934;2022-07-15T06:08:22;4.03;;;3.10;;
3853;SDS011;1942;48.770;8.934;2022-07-15T06:10:52;4.63;;;3.00;;
3853;SDS011;1942;48.770;8.934;2022-07-15T06:13:19;4.97;;;2.90;;
3853;SDS011;1942;48.770;8.934;2022-07-15T06:15:53;5.43;;;2.70;;
3853;SDS011;1942;48.770;8.934;2022-07-15T06:18:20;4.37;;;2.90;;
3853;SDS011;1942;48.770;8.934;2022-07-15T06:20:47;3.47;;;2.90;;
3853;SDS011;1942;48.770;8.934;2022-07-15T06:23:17;2.77;;;2.40;;
3853;SDS011;1942;48.770;8.934;2022-07-15T06:25:47;3.20;;;2.27;;
3853;SDS011;1942;48.770;8.934;2022-07-15T06:28:13;3.27;;;2.17;;
3853;SDS011;1942;48.770;8.934;2022-07-15T06:30:40;4.37;;;2.90;;
3853;SDS011;1942;48.770;8.934;2022-07-15T06:33:09;2.67;;;2.43;;
3853;SDS011;1942;48.770;8.934;2022-07-15T06:35:36;2.83;;;2.23;;
3853;SDS011;1942;48.770;8.934;2022-07-15T06:38:04;3.83;;;2.20;;
3853;SDS011;1942;48.770;8.934;2022-07-15T06:40:35;3.60;;;2.30;;
3853;SDS011;1942;48.770;8.934;2022-07-15T06:43:04;2.20;;;1.90;;
3853;SDS011;1942;48.770;8.934;2022-07-15T06:45:33;2.27;;;2.07;;
3853;SDS011;1942;48.770;8.934;2022-07-15T06:48:01;5.10;;;2.13;;
3853;SDS011;1942;48.770;8.934;2022-07-15T06:50:33;1.90;;;1.70;;
3853;SDS011;1942;48.770;8.934;2022-07-15T06:53:00;2.47;;;1.50;;
3853;SDS011;1942;48.770;8.934;2022-07-15T06:55:30;4.10;;;1.90;;
3853;SDS011;1942;48.770;8.934;2022-07-15T06:58:03;3.00;;;2.00;;
3853;SDS011;1942;48.770;8.934;2022-07-15T07:00:37;3.27;;;1.87;;
3853;SDS011;1942;48.770;8.934;2022-07-15T07:03:10;4.43;;;2.20;;
3853;SDS011;1942;48.770;8.934;2022-07-15T07:05:44;2.47;;;1.50;;
3853;SDS011;1942;48.770;8.934;2022-07-15T07:08:11;2.30;;;1.63;;
3853;SDS011;1942;48.770;8.934;2022-07-15T07:10:38;2.67;;;1.80;;
3853;SDS011;1942;48.770;8.934;2022-07-15T07:13:05;2.83;;;1.50;;
3853;SDS011;1942;48.770;8.934;2022-07-15T07:15:32;2.73;;;1.50;;
3853;SDS011;1942;48.770;8.934;2022-07-15T07:17:59;3.53;;;1.70;;
3853;SDS011;1942;48.770;8.934;2022-07-15T07:20:26;2.37;;;1.53;;
3853;SDS011;1942;48.770;8.934;2022-07-15T07:22:56;5.07;;;2.50;;
3853;SDS011;1942;48.770;8.934;2022-07-15T07:25:30;3.87;;;2.10;;
3853;SDS011;1942;48.770;8.934;2022-07-15T07:27:57;2.50;;;1.90;;
3853;SDS011;1942;48.770;8.934;2022-07-15T07:30:28;2.60;;;1.60;;
3853;SDS011;1942;48.770;8.934;2022-07-15T07:32:55;2.53;;;1.60;;
3853;SDS011;1942;48.770;8.934;2022-07-15T07:35:22;1.73;;;1.40;;
3853;SDS011;1942;48.770;8.934;2022-07-15T07:37:50;3.93;;;1.93;;
3853;SDS011;1942;48.770;8.934;2022-07-15T07:40:19;2.10;;;1.90;;
3853;SDS011;1942;48.770;8.934;2022-07-15T07:42:46;2.50;;;1.50;;
3853;SDS011;1942;48.770;8.934;2022-07-15T07:45:12;3.33;;;2.00;;
3853;SDS011;1942;48.770;8.934;2022-07-15T07:47:39;4.63;;;1.60;;
3853;SDS011;1942;48.770;8.934;2022-07-15T07:50:08;4.30;;;2.00;;
3853;SDS011;1942;48.770;8.934;2022-07-15T07:52:35;3.20;;;1.77;;
3853;SDS011;1942;48.770;8.934;2022-07-15T07:55:03;3.77;;;2.10;;
3853;SDS011;1942;48.770;8.934;2022-07-15T07:57:31;5.23;;;1.83;;
3853;SDS011;1942;48.770;8.934;2022-07-15T07:59:58;4.00;;;1.77;;
3853;SDS011;1942;48.770;8.934;2022-07-15T08:02:25;4.30;;;1.90;;
3853;SDS011;1942;48.770;8.934;2022-07-15T08:04:52;10.03;;;3.43;;
3853;SDS011;1942;48.770;8.934;2022-07-15T08:07:20;2.73;;;1.90;;
3853;SDS011;1942;48.770;8.934;2022-07-15T08:09:50;3.73;;;1.97;;
3853;SDS011;1942;48.770;8.934;2022-07-15T08:12:17;3.87;;;1.53;;
3853;SDS011;1942;48.770;8.934;2022-07-15T08:14:45;3.63;;;1.80;;
3853;SDS011;1942;48.770;8.934;2022-07-15T08:17:12;3.13;;;1.73;;
3853;SDS011;1942;48.770;8.934;2022-07-15T08:19:38;3.10;;;1.73;;
3853;SDS011;1942;48.770;8.934;2022-07-15T08:22:05;3.83;;;1.67;;
3853;SDS011;1942;48.770;8.934;2022-07-15T08:24:32;3.33;;;1.63;;
3853;SDS011;1942;48.770;8.934;2022-07-15T08:26:59;3.80;;;1.60;;
3853;SDS011;1942;48.770;8.934;2022-07-15T08:29:26;2.35;;;1.60;;
3853;SDS011;1942;48.770;8.934;2022-07-15T08:31:54;5.13;;;1.90;;
3853;SDS011;1942;48.770;8.934;2022-07-15T08:34:21;3.78;;;1.85;;
3853;SDS011;1942;48.770;8.934;2022-07-15T08:36:48;5.90;;;1.80;;
3853;SDS011;1942;48.770;8.934;2022-07-15T08:39:15;2.83;;;1.73;;
3853;SDS011;1942;48.770;8.934;2022-07-15T08:41:42;3.22;;;2.10;;
3853;SDS011;1942;48.770;8.934;2022-07-15T08:44:09;5.03;;;2.30;;
3853;SDS011;1942;48.770;8.934;2022-07-15T08:46:36;3.13;;;2.10;;
3853;SDS011;1942;48.770;8.934;2022-07-15T08:49:06;2.60;;;1.75;;
3853;SDS011;1942;48.770;8.934;2022-07-15T08:51:36;4.72;;;2.00;;
3853;SDS011;1942;48.770;8.934;2022-07-15T08:54:07;5.20;;;2.20;;
3853;SDS011;1942;48.770;8.934;2022-07-15T08:56:34;4.55;;;2.35;;
3853;SDS011;1942;48.770;8.934;2022-07-15T08:59:02;2.47;;;1.70;;
3853;SDS011;1942;48.770;8.934;2022-07-15T09:01:31;2.83;;;2.10;;
3853;SDS011;1942;48.770;8.934;2022-07-15T09:03:59;3.40;;;2.50;;
3853;SDS011;1942;48.770;8.934;2022-07-15T09:06:34;5.47;;;2.92;;
3853;SDS011;1942;48.770;8.934;2022-07-15T09:09:21;6.05;;;4.47;;
3853;SDS011;1942;48.770;8.934;2022-07-15T09:11:53;3.55;;;1.88;;
3853;SDS011;1942;48.770;8.934;2022-07-15T09:14:31;8.18;;;2.33;;
3853;SDS011;1942;48.770;8.934;2022-07-15T09:17:07;5.63;;;3.83;;
3853;SDS011;1942;48.770;8.934;2022-07-15T09:19:55;3.58;;;2.67;;
3853;SDS011;1942;48.770;8.934;2022-07-15T09:22:29;2.38;;;1.88;;
3853;SDS011;1942;48.770;8.934;2022-07-15T09:25:03;3.38;;;2.63;;
3853;SDS011;1942;48.770;8.934;2022-07-15T09:27:33;1.98;;;1.83;;
3853;SDS011;1942;48.770;8.934;2022-07-15T09:30:13;5.03;;;2.60;;
3853;SDS011;1942;48.770;8.934;2022-07-15T09:33:00;6.35;;;4.15;;
3853;SDS011;1942;48.770;8.934;2022-07-15T09:35:46;5.68;;;3.72;;
3853;SDS011;1942;48.770;8.934;2022-07-15T09:38:31;8.32;;;6.35;;
3853;SDS011;1942;48.770;8.934;2022-07-15T09:40:59;4.18;;;2.45;;
3853;SDS011;1942;48.770;8.934;2022-07-15T09:43:27;3.20;;;2.13;;
3853;SDS011;1942;48.770;8.934;2022-07-15T09:45:58;7.13;;;5.43;;
3853;SDS011;1942;48.770;8.934;2022-07-15T09:48:25;10.15;;;5.57;;
3853;SDS011;1942;48.770;8.934;2022-07-15T09:51:00;3.95;;;2.20;;
3853;SDS011;1942;48.770;8.934;2022-07-15T09:53:27;7.90;;;3.80;;
3853;SDS011;1942;48.770;8.934;2022-07-15T09:55:55;15.88;;;3.58;;
3853;SDS011;1942;48.770;8.934;2022-07-15T09:58:22;3.63;;;2.10;;
3853;SDS011;1942;48.770;8.934;2022-07-15T10:00:50;4.50;;;2.40;;
3853;SDS011;1942;48.770;8.934;2022-07-15T10:03:18;6.43;;;2.63;;
3853;SDS011;1942;48.770;8.934;2022-07-15T10:05:49;6.50;;;2.25;;
3853;SDS011;1942;48.770;8.934;2022-07-15T10:08:18;5.65;;;3.28;;
3853;SDS011;1942;48.770;8.934;2022-07-15T10:10:48;2.47;;;2.08;;
3853;SDS011;1942;48.770;8.934;2022-07-15T10:13:23;9.23;;;2.30;;
3853;SDS011;1942;48.770;8.934;2022-07-15T10:16:07;6.13;;;2.55;;
3853;SDS011;1942;48.770;8.934;2022-07-15T10:18:48;2.95;;;2.03;;
3853;SDS011;1942;48.770;8.934;2022-07-15T10:21:27;3.90;;;2.10;;
3853;SDS011;1942;48.770;8.934;2022-07-15T10:24:05;6.65;;;2.40;;
3853;SDS011;1942;48.770;8.934;2022-07-15T10:26:43;4.72;;;2.30;;
3853;SDS011;1942;48.770;8.934;2022-07-15T10:29:22;3.67;;;2.03;;
3853;SDS011;1942;48.770;8.934;2022-07-15T10:31:55;4.00;;;2.50;;
3853;SDS011;1942;48.770;8.934;2022-07-15T10:34:22;3.90;;;2.47;;
3853;SDS011;1942;48.770;8.934;2022-07-15T10:37:03;6.65;;;2.42;;
3853;SDS011;1942;48.770;8.934;2022-07-15T10:39:47;4.82;;;2.28;;
3853;SDS011;1942;48.770;8.934;2022-07-15T10:45:27;6.30;;;2.20;;
3853;SDS011;1942;48.770;8.934;2022-07-15T10:50:51;5.78;;;2.78;;
3853;SDS011;1942;48.770;8.934;2022-07-15T10:53:20;2.38;;;1.92;;
3853;SDS011;1942;48.770;8.934;2022-07-15T10:55:49;3.22;;;2.20;;
3853;SDS011;1942;48.770;8.934;2022-07-15T10:58:17;5.45;;;2.28;;
3853;SDS011;1942;48.770;8.934;2022-07-15T11:00:46;3.85;;;1.98;;
3853;SDS011;1942;48.770;8.934;2022-07-15T11:03:15;5.03;;;2.17;;
3853;SDS011;1942;48.770;8.934;2022-07-15T11:06:03;2.78;;;2.03;;
3853;SDS011;1942;48.770;8.934;2022-07-15T11:08:50;2.83;;;2.00;;
3853;SDS011;1942;48.770;8.934;2022-07-15T11:17:13;2.92;;;1.98;;
3853;SDS011;1942;48.770;8.934;2022-07-15T11:19:44;3.38;;;1.90;;
3853;SDS011;1942;48.770;8.934;2022-07-15T11:22:13;3.30;;;2.10;;
3853;SDS011;1942;48.770;8.934;2022-07-15T11:24:41;3.88;;;2.25;;
3853;SDS011;1942;48.770;8.934;2022-07-15T11:27:08;4.43;;;1.80;;
3853;SDS011;1942;48.770;8.934;2022-07-15T11:29:41;4.18;;;2.55;;
3853;SDS011;1942;48.770;8.934;2022-07-15T11:32:15;2.78;;;2.10;;
3853;SDS011;1942;48.770;8.934;2022-07-15T11:34:43;3.90;;;2.55;;
3853;SDS011;1942;48.770;8.934;2022-07-15T11:37:11;3.15;;;1.73;;
3853;SDS011;1942;48.770;8.934;2022-07-15T11:39:44;3.88;;;2.20;;
3853;SDS011;1942;48.770;8.934;2022-07-15T11:42:19;3.08;;;2.15;;
3853;SDS011;1942;48.770;8.934;2022-07-15T11:45:30;3.67;;;1.70;;
3853;SDS011;1942;48.770;8.934;2022-07-15T11:48:01;3.83;;;1.90;;
3853;SDS011;1942;48.770;8.934;2022-07-15T11:50:27;5.68;;;1.98;;
3853;SDS011;1942;48.770;8.934;2022-07-15T11:52:55;4.47;;;2.30;;
3853;SDS011;1942;48.770;8.934;2022-07-15T11:55:22;4.45;;;1.77;;
3853;SDS011;1942;48.770;8.934;2022-07-15T11:57:49;4.63;;;1.75;;
3853;SDS011;1942;48.770;8.934;2022-07-15T12:00:17;4.00;;;2.00;;
3853;SDS011;1942;48.770;8.934;2022-07-15T12:02:45;3.85;;;2.30;;
3853;SDS011;1942;48.770;8.934;2022-07-15T12:05:13;3.17;;;2.20;;
3853;SDS011;1942;48.770;8.934;2022-07-15T12:07:40;4.25;;;1.80;;
3853;SDS011;1942;48.770;8.934;2022-07-15T12:10:08;3.85;;;2.00;;
3853;SDS011;1942;48.770;8.934;2022-07-15T12:12:39;2.00;;;1.73;;
3853;SDS011;1942;48.770;8.934;2022-07-15T12:15:08;5.53;;;1.80;;
3853;SDS011;1942;48.770;8.934;2022-07-15T12:17:35;4.53;;;2.28;;
3853;SDS011;1942;48.770;8.934;2022-07-15T12:20:02;5.40;;;2.60;;
3853;SDS011;1942;48.770;8.934;2022-07-15T12:22:33;3.00;;;2.25;;
3853;SDS011;1942;48.770;8.934;2022-07-15T12:25:00;4.97;;;1.92;;
3853;SDS011;1942;48.770;8.934;2022-07-15T12:27:33;3.70;;;2.10;;
3853;SDS011;1942;48.770;8.934;2022-07-15T12:30:01;3.65;;;2.10;;
3853;SDS011;1942;48.770;8.934;2022-07-15T12:32:29;3.60;;;1.88;;
3853;SDS011;1942;48.770;8.934;2022-07-15T12:34:57;3.20;;;2.00;;
3853;SDS011;1942;48.770;8.934;2022-07-15T12:37:25;2.97;;;1.80;;
3853;SDS011;1942;48.770;8.934;2022-07-15T12:39:56;3.15;;;2.20;;
3853;SDS011;1942;48.770;8.934;2022-07-15T12:42:23;2.92;;;1.90;;
3853;SDS011;1942;48.770;8.934;2022-07-15T12:45:07;3.20;;;1.75;;
3853;SDS011;1942;48.770;8.934;2022-07-15T12:47:35;3.47;;;2.00;;
3853;SDS011;1942;48.770;8.934;2022-07-15T12:50:03;4.53;;;1.75;;
3853;SDS011;1942;48.770;8.934;2022-07-15T12:52:32;2.10;;;1.90;;
3853;SDS011;1942;48.770;8.934;2022-07-15T12:55:11;4.20;;;2.35;;
3853;SDS011;1942;48.770;8.934;2022-07-15T12:57:39;4.97;;;1.90;;
3853;SDS011;1942;48.770;8.934;2022-07-15T13:00:10;3.15;;;2.03;;
3853;SDS011;1942;48.770;8.934;2022-07-15T13:02:59;2.53;;;1.80;;
3853;SDS011;1942;48.770;8.934;2022-07-15T13:05:28;3.17;;;1.85;;
3853;SDS011;1942;48.770;8.934;2022-07-15T13:07:57;2.40;;;2.10;;
3853;SDS011;1942;48.770;8.934;2022-07-15T13:10:25;2.70;;;1.88;;
3853;SDS011;1942;48.770;8.934;2022-07-15T13:12:54;3.70;;;2.03;;
3853;SDS011;1942;48.770;8.934;2022-07-15T13:15:20;2.38;;;1.90;;
3853;SDS011;1942;48.770;8.934;2022-07-15T13:17:47;5.80;;;2.08;;
3853;SDS011;1942;48.770;8.934;2022-07-15T13:20:14;1.85;;;1.60;;
3853;SDS011;1942;48.770;8.934;2022-07-15T13:22:41;2.05;;;1.85;;
3853;SDS011;1942;48.770;8.934;2022-07-15T13:25:08;3.78;;;1.70;;
3853;SDS011;1942;48.770;8.934;2022-07-15T13:27:36;2.97;;;2.35;;
3853;SDS011;1942;48.770;8.934;2022-07-15T13:30:04;2.95;;;2.00;;
3853;SDS011;1942;48.770;8.934;2022-07-15T13:32:31;4.25;;;1.85;;
3853;SDS011;1942;48.770;8.934;2022-07-15T13:34:58;4.30;;;2.03;;
3853;SDS011;1942;48.770;8.934;2022-07-15T13:37:25;5.10;;;2.35;;
3853;SDS011;1942;48.770;8.934;2022-07-15T13:39:52;5.88;;;2.00;;
3853;SDS011;1942;48.770;8.934;2022-07-15T13:42:19;5.65;;;2.03;;
3853;SDS011;1942;48.770;8.934;2022-07-15T13:44:47;5.80;;;2.00;;
3853;SDS011;1942;48.770;8.934;2022-07-15T13:47:14;2.88;;;1.88;;
3853;SDS011;1942;48.770;8.934;2022-07-15T13:49:41;1.88;;;1.77;;
3853;SDS011;1942;48.770;8.934;2022-07-15T13:52:25;5.40;;;2.53;;
3853;SDS011;1942;48.770;8.934;2022-07-15T13:54:52;3.65;;;2.05;;
3853;SDS011;1942;48.770;8.934;2022-07-15T13:57:19;5.65;;;1.92;;
3853;SDS011;1942;48.770;8.934;2022-07-15T13:59:46;3.25;;;1.83;;
3853;SDS011;1942;48.770;8.934;2022-07-15T14:02:14;2.92;;;1.75;;
3853;SDS011;1942;48.770;8.934;2022-07-15T14:04:41;2.30;;;1.70;;
3853;SDS011;1942;48.770;8.934;2022-07-15T14:07:07;4.63;;;2.15;;
3853;SDS011;1942;48.770;8.934;2022-07-15T14:09:34;4.72;;;2.10;;
3853;SDS011;1942;48.770;8.934;2022-07-15T14:12:01;3.47;;;2.05;;
3853;SDS011;1942;48.770;8.934;2022-07-15T14:14:28;3.17;;;2.00;;
3853;SDS011;1942;48.770;8.934;2022-07-15T14:16:56;5.05;;;2.17;;
3853;SDS011;1942;48.770;8.934;2022-07-15T14:19:23;3.03;;;1.88;;
3853;SDS011;1942;48.770;8.934;2022-07-15T14:21:50;2.85;;;2.03;;
3853;SDS011;1942;48.770;8.934;2022-07-15T14:24:17;4.22;;;2.03;;
3853;SDS011;1942;48.770;8.934;2022-07-15T14:26:43;2.30;;;1.88;;
3853;SDS011;1942;48.770;8.934;2022-07-15T14:29:10;2.78;;;2.03;;
3853;SDS011;1942;48.770;8.934;2022-07-15T14:31:37;3.08;;;2.03;;
3853;SDS011;1942;48.770;8.934;2022-07-15T14:34:05;2.45;;;1.85;;
3853;SDS011;1942;48.770;8.934;2022-07-15T14:36:32;5.95;;;2.20;;
3853;SDS011;1942;48.770;8.934;2022-07-15T14:38:59;6.38;;;2.05;;
3853;SDS011;1942;48.770;8.934;2022-07-15T14:41:26;3.42;;;2.00;;
3853;SDS011;1942;48.770;8.934;2022-07-15T14:43:53;4.22;;;2.13;;
3853;SDS011;1942;48.770;8.934;2022-07-15T14:46:20;5.53;;;2.50;;
3853;SDS011;1942;48.770;8.934;2022-07-15T14:48:46;5.72;;;2.65;;
3853;SDS011;1942;48.770;8.934;2022-07-15T14:51:15;3.50;;;1.90;;
3853;SDS011;1942;48.770;8.934;2022-07-15T14:53:43;1.85;;;1.70;;
3853;SDS011;1942;48.770;8.934;2022-07-15T14:56:09;5.78;;;2.40;;
3853;SDS011;1942;48.770;8.934;2022-07-15T14:58:36;3.75;;;2.28;;
3853;SDS011;1942;48.770;8.934;2022-07-15T15:01:03;5.80;;;2.10;;
3853;SDS011;1942;48.770;8.934;2022-07-15T15:03:31;3.78;;;1.75;;
3853;SDS011;1942;48.770;8.934;2022-07-15T15:05:58;2.45;;;2.25;;
3853;SDS011;1942;48.770;8.934;2022-07-15T15:08:26;4.07;;;1.83;;
3853;SDS011;1942;48.770;8.934;2022-07-15T15:10:53;3.00;;;2.00;;
3853;SDS011;1942;48.770;8.934;2022-07-15T15:13:20;3.50;;;1.77;;
3853;SDS011;1942;48.770;8.934;2022-07-15T15:15:47;2.92;;;1.50;;
3853;SDS011;1942;48.770;8.934;2022-07-15T15:18:14;2.72;;;1.80;;
3853;SDS011;1942;48.770;8.934;2022-07-15T15:20:40;2.28;;;1.80;;
3853;SDS011;1942;48.770;8.934;2022-07-15T15:23:07;2.83;;;1.90;;
3853;SDS011;1942;48.770;8.934;2022-07-15T15:25:35;2.60;;;1.98;;
3853;SDS011;1942;48.770;8.934;2022-07-15T15:28:20;2.17;;;1.70;;
3853;SDS011;1942;48.770;8.934;2022-07-15T15:30:46;3.83;;;2.15;;
3853;SDS011;1942;48.770;8.934;2022-07-15T15:33:14;4.43;;;1.95;;
3853;SDS011;1942;48.770;8.934;2022-07-15T15:35:41;2.67;;;1.75;;
3853;SDS011;1942;48.770;8.934;2022-07-15T15:38:08;2.80;;;1.85;;
3853;SDS011;1942;48.770;8.934;2022-07-15T15:40:36;2.08;;;1.70;;